Airfield :
LOGIN :

Register | Disclaimer

   EN    FR    IT 

 










Legend :    VFR   Marginal VFR   IFR   Intensive IFR   Very Intensive IFR
Visi :
Ceiling :
>= 8 km
>= 3000ft
5 to 8 km
1000 to 3000 ft
1500m to 5 km
500 to 1000 ft
800 to 1500m
200 to 500 ft
< 800m
< 200 ft
Symbols :   Thunderstorms  Fog  Heavy snow  Heavy precipitations  Wind > 20 kt
SIGMETs :     Misc.  Thunderstorms  Icing  Turbulence  Mountain Waves  Volcanic Ashes






- Airport Elevation : 697 ft
- IATA code : PEG


LIRZ - San Edigio Perugia

CURRENT METAR :
  • 170620Z AUTO 14002KT 0400 R01/0800U FG VV003 01/01 Q1026

EXPIRED METARs :
  • 170550Z AUTO VRB02KT 0300 R01/0800N FG VV002 01/01 Q1026
  • 170520Z AUTO 35003KT 0200 R01/0500N FG VV002 01/01 Q1026
  • 170450Z AUTO 35003KT 310V020 0150 R01/0550N FG VV002 01/01 Q1026
  • 170420Z AUTO 35003KT 0150 R01/1200D FG VV002 01/01 Q1026
  • 170350Z AUTO VRB02KT 4300 R01/0500D BR VV002 01/01 Q1026

TAF TAF LIRZ
Valid from the 17 at 06:00 until the 18 at 06:00 UTC


170500Z 1706/1806 VRB04KT 3000 BR BKN005
TEMPO 1706/1709 0800 FG
BECMG 1710/1712 7000 SCT030
BECMG 1720/1722 0800 FG BKN005



MET'MAP, your aeronautical weather chart ! - Copyright ORBIFLY December 2007 - Disclaimer

ORBIFLY MET'MAP TEAM :

Programming & Development : Alexandra Zaïnal
Concept & original design : Baudouin d'Aumeries
Assistance for programming : Marc-Olivier Méhu
Technical & hardware support : Manuel Goepfert

Contact : metmap@orbifly.com




SOURCES & CREDITS :

   NOAA